»·PEaware :: N5268J KBFL-KFAT

N5268J :: KBFL-KFAT

FLIGHT INFORMATION

Flight Status: Arrived
Operator: Privately registered:
United States
More flights under this callsign
Pilot: John P. (31881)
Aircraft: BEECH AIRCRAFT BONANZA
(BE36)
More flights by this aircraft type
Origin: KBFL Meadows
United States
Destination: KFAT Fresno Yosemite Intl
United States
More flights between these airports :: More routes between these airports
Route:
File this flight plan on PilotEdge
Remarks:
Altitude:
(Current/Filed)
6,500ft
Speed:
(Current/Filed)
167kts
Departed: 23-Oct-20 01:44 PM
Arrived: 23-Oct-20 02:26 PM
Distance/Time
Traveled:
6799nm/0:42
Distance/Time
To Go:
Arrived

Flight Plot

Page will automatically refresh every two minutes.


Map Options




Map Legend


Flown Route
Filed Route
Departure Airport
Arrival Airport
Navaid (VOR, NDB)
Fix

Horizontal Profiles

Position Reports

Time Latitude Longitude Heading Altitude Ground
Speed
23-Oct-20 13:35 35.432214 -119.050331 226 485ft 0kts
23-Oct-20 13:36 35.432214 -119.050331 226 485ft 0kts
23-Oct-20 13:37 35.432214 -119.050331 226 485ft 0kts
23-Oct-20 13:38 35.432214 -119.050331 226 485ft 0kts
23-Oct-20 13:39 35.430762 -119.049350 202 483ft 13kts
23-Oct-20 13:40 35.427539 -119.046769 154 478ft 0kts
23-Oct-20 13:41 35.425691 -119.044724 246 471ft 0kts
23-Oct-20 13:42 35.425503 -119.045278 272 472ft 10kts
23-Oct-20 13:43 35.438722 -119.061580 343 850ft 106kts
23-Oct-20 13:45 35.465976 -119.073116 341 2204ft 105kts
23-Oct-20 13:46 35.467899 -119.074054 340 2296ft 105kts
23-Oct-20 13:47 35.467899 -119.074054 340 2296ft 105kts
23-Oct-20 13:48 35.490988 -119.085318 340 3236ft 106kts
23-Oct-20 13:49 35.518303 -119.098571 338 4137ft 104kts
23-Oct-20 13:50 35.545229 -119.111622 338 4813ft 104kts
23-Oct-20 13:51 35.572243 -119.124730 338 5182ft 104kts
23-Oct-20 13:52 35.599271 -119.137868 338 6103ft 105kts
23-Oct-20 13:53 35.631415 -119.153456 338 6489ft 144kts
23-Oct-20 13:54 35.671197 -119.172831 338 6500ft 159kts
23-Oct-20 13:55 35.712349 -119.192881 338 6501ft 160kts
23-Oct-20 13:56 35.753922 -119.213146 338 6501ft 160kts
23-Oct-20 13:56 35.788402 -119.229966 337 6500ft 160kts
23-Oct-20 13:58 35.836857 -119.253643 337 6499ft 160kts
23-Oct-20 13:58 35.871344 -119.270511 337 6499ft 160kts
23-Oct-20 14:00 35.919733 -119.294198 337 6498ft 160kts
23-Oct-20 14:00 35.954318 -119.311157 338 6504ft 160kts
23-Oct-20 14:01 35.996004 -119.331623 337 6495ft 161kts
23-Oct-20 14:02 36.037720 -119.352111 337 6505ft 161kts
23-Oct-20 14:03 36.079518 -119.372669 337 6503ft 162kts
23-Oct-20 14:05 36.128436 -119.396757 337 6502ft 162kts
23-Oct-20 14:05 36.163396 -119.413997 337 6501ft 162kts
23-Oct-20 14:06 36.205345 -119.434701 338 6501ft 162kts
23-Oct-20 14:07 36.247293 -119.455428 338 6500ft 162kts
23-Oct-20 14:08 36.289348 -119.476232 338 6499ft 162kts
23-Oct-20 14:09 36.331458 -119.497094 338 6499ft 162kts
23-Oct-20 14:10 36.373433 -119.517905 338 6499ft 162kts
23-Oct-20 14:11 36.415484 -119.538774 338 6498ft 162kts
23-Oct-20 14:12 36.457406 -119.559616 338 6498ft 162kts
23-Oct-20 14:13 36.499294 -119.580457 338 6497ft 161kts
23-Oct-20 14:14 36.540939 -119.601205 338 6492ft 161kts
23-Oct-20 14:15 36.583462 -119.622413 338 5238ft 163kts
23-Oct-20 14:16 36.625744 -119.643529 339 3939ft 159kts
23-Oct-20 14:17 36.664936 -119.663127 340 2597ft 131kts
23-Oct-20 14:18 36.691405 -119.671577 80 2476ft 73kts
23-Oct-20 14:19 36.682669 -119.650540 118 2646ft 77kts
23-Oct-20 14:20 36.657172 -119.640336 249 2502ft 147kts
23-Oct-20 14:21 36.685156 -119.673371 338 2494ft 168kts
23-Oct-20 14:22 36.725636 -119.690915 18 1835ft 124kts
23-Oct-20 14:23 36.755758 -119.686216 305 1046ft 121kts
23-Oct-20 14:24 36.774259 -119.717272 315 332ft 78kts
23-Oct-20 14:25 36.776375 -119.722606 212 331ft 0kts
23-Oct-20 14:26 36.775098 -119.723570 163 332ft 0kts
23-Oct-20 14:27 36.775098 -119.723570 163 332ft 0kts
23-Oct-20 14:28 36.775098 -119.723570 163 332ft 0kts
23-Oct-20 14:29 36.775098 -119.723570 163 332ft 0kts
23-Oct-20 14:31 0.000408 0.013975 360 3ft 0kts
23-Oct-20 14:32 0.000408 0.013975 360 3ft 0kts
23-Oct-20 14:33 0.000408 0.013975 360 3ft 0kts
23-Oct-20 14:34 0.000408 0.013975 360 3ft 0kts
23-Oct-20 14:35 0.000408 0.013975 360 3ft 0kts
23-Oct-20 14:36 0.000408 0.013975 360 3ft 0kts
23-Oct-20 14:37 0.000408 0.013975 360 3ft 0kts
23-Oct-20 14:38 0.000408 0.013975 360 3ft 0kts
23-Oct-20 14:39 0.000408 0.013975 360 3ft 0kts

Navigation Log

Ident Type
Flight plan parsing failed, navigation log unavailable